createdAt,value
2023-01-15T00:02:04.924Z,54.75
2023-01-15T00:05:13.238Z,55.56
2023-01-15T00:08:21.842Z,55.37
2023-01-15T00:11:30.328Z,55.74
2023-01-15T00:14:38.617Z,55.52
2023-01-15T00:17:48.245Z,56.82
2023-01-15T00:21:01.347Z,56.29
2023-01-15T00:24:28.199Z,56.16
2023-01-15T00:31:07.378Z,55.88
2023-01-15T00:34:18.995Z,55.51
2023-01-15T00:37:27.761Z,55.24
2023-01-15T00:40:36.083Z,54.30
2023-01-15T00:43:44.383Z,54.32
2023-01-15T00:46:54.604Z,54.69
2023-01-15T00:50:04.538Z,54.75
2023-01-15T00:53:13.063Z,55.14
2023-01-15T00:56:21.313Z,54.78
2023-01-15T00:59:29.789Z,54.93
2023-01-15T01:02:41.226Z,55.71
2023-01-15T01:05:51.416Z,55.00
2023-01-15T01:08:59.579Z,56.27
2023-01-15T01:12:10.303Z,55.71
2023-01-15T01:15:19.279Z,56.71
2023-01-15T01:18:27.686Z,57.16
2023-01-15T01:21:39.567Z,58.76
2023-01-15T01:24:47.778Z,59.46
2023-01-15T01:27:56.032Z,57.88
2023-01-15T01:31:06.630Z,58.38
2023-01-15T01:34:16.278Z,58.25
2023-01-15T01:37:25.911Z,58.52
2023-01-15T01:40:36.313Z,60.71
2023-01-15T01:43:59.585Z,60.34
2023-01-15T01:47:12.524Z,61.63
2023-01-15T01:50:23.103Z,60.81
2023-01-15T01:53:34.104Z,60.66
2023-01-15T01:56:44.475Z,60.06
2023-01-15T01:59:53.916Z,60.01
2023-01-15T02:03:06.682Z,60.32
2023-01-15T02:06:16.492Z,59.60
2023-01-15T02:09:27.197Z,60.11
2023-01-15T02:12:41.137Z,60.37
2023-01-15T02:15:58.449Z,60.87
2023-01-15T02:19:23.783Z,61.39
2023-01-15T02:22:46.110Z,61.12
2023-01-15T02:26:30.852Z,61.41
2023-01-15T02:29:57.965Z,61.80
2023-01-15T02:33:14.698Z,61.31
2023-01-15T02:36:30.107Z,61.88
2023-01-15T02:39:47.112Z,61.25
2023-01-15T02:42:58.450Z,61.76
2023-01-15T02:46:10.841Z,62.06
2023-01-15T02:49:23.721Z,62.11
2023-01-15T02:52:38.450Z,62.41
2023-01-15T02:55:53.101Z,62.85
2023-01-15T02:59:12.698Z,62.20
2023-01-15T03:02:33.159Z,63.29
2023-01-15T03:05:52.227Z,62.91
2023-01-15T03:09:00.975Z,62.51
2023-01-15T03:12:21.191Z,62.96
2023-01-15T03:16:00.508Z,62.71
2023-01-15T03:19:25.259Z,62.52
2023-01-15T03:22:41.627Z,63.06
2023-01-15T03:25:52.894Z,62.85
2023-01-15T03:29:05.824Z,63.54
2023-01-15T03:32:15.741Z,63.18
2023-01-15T03:35:52.801Z,63.03
2023-01-15T03:39:13.349Z,63.14
2023-01-15T03:43:10.522Z,63.11
2023-01-15T03:46:40.694Z,63.80
2023-01-15T03:50:00.510Z,63.90
2023-01-15T03:53:24.546Z,65.12
2023-01-15T03:56:55.536Z,65.83
2023-01-15T04:00:15.725Z,65.58
2023-01-15T04:03:25.714Z,65.41
2023-01-15T04:06:39.576Z,64.82
2023-01-15T04:09:49.889Z,65.28
2023-01-15T04:12:59.278Z,65.23
2023-01-15T04:16:08.388Z,64.78
2023-01-15T04:19:17.294Z,65.10
2023-01-15T04:22:33.262Z,65.14
2023-01-15T04:25:43.522Z,65.85
2023-01-15T04:28:52.131Z,65.67
2023-01-15T04:32:00.319Z,65.97
2023-01-15T04:35:09.029Z,65.89
2023-01-15T04:38:17.940Z,66.66
2023-01-15T04:41:45.219Z,66.36
2023-01-15T04:44:53.388Z,66.61
2023-01-15T04:48:01.470Z,66.85
2023-01-15T04:51:09.602Z,66.80
2023-01-15T04:54:18.724Z,67.61
2023-01-15T04:57:28.327Z,67.13
2023-01-15T05:00:37.574Z,66.80
2023-01-15T05:03:46.207Z,66.90
2023-01-15T05:06:54.393Z,66.88
2023-01-15T05:10:02.491Z,66.81
2023-01-15T05:13:12.651Z,67.20
2023-01-15T05:16:24.726Z,67.73
2023-01-15T05:19:33.188Z,68.01
2023-01-15T05:22:41.297Z,67.33
2023-01-15T05:25:49.459Z,68.71
2023-01-15T05:29:01.440Z,67.79
2023-01-15T05:32:09.819Z,67.97
2023-01-15T05:35:18.354Z,66.23
2023-01-15T05:38:26.426Z,65.41
2023-01-15T05:41:49.846Z,66.62
2023-01-15T05:44:59.237Z,64.89
2023-01-15T05:48:07.484Z,63.87
2023-01-15T05:51:16.904Z,64.05
2023-01-15T05:54:27.564Z,62.63
2023-01-15T05:57:35.964Z,61.81
2023-01-15T06:00:45.585Z,62.27
2023-01-15T06:03:55.972Z,60.78
2023-01-15T06:07:04.179Z,60.33
2023-01-15T06:10:12.333Z,61.57
2023-01-15T06:13:20.730Z,62.38
2023-01-15T06:16:30.515Z,63.00
2023-01-15T06:19:38.571Z,64.21
2023-01-15T06:22:46.725Z,65.36
2023-01-15T06:25:55.104Z,64.24
2023-01-15T06:29:03.300Z,64.56
2023-01-15T06:32:12.981Z,63.24
2023-01-15T06:35:21.210Z,65.26
2023-01-15T06:38:29.247Z,64.81
2023-01-15T06:41:55.034Z,65.49
2023-01-15T06:45:20.828Z,65.19
2023-01-15T06:48:30.556Z,65.97
2023-01-15T06:51:38.654Z,65.88
2023-01-15T06:54:46.926Z,65.10
2023-01-15T06:57:55.078Z,66.45
2023-01-15T07:01:10.516Z,65.97
2023-01-15T07:04:20.064Z,66.37
2023-01-15T07:07:29.870Z,67.83
2023-01-15T07:10:37.975Z,68.02
2023-01-15T07:13:46.185Z,67.58
2023-01-15T07:16:54.725Z,67.81
2023-01-15T07:20:05.378Z,67.51
2023-01-15T07:23:14.564Z,67.54
2023-01-15T07:26:24.104Z,67.49
2023-01-15T07:29:32.239Z,66.76
2023-01-15T07:32:40.403Z,67.31
2023-01-15T07:35:49.976Z,68.13
2023-01-15T07:38:58.310Z,67.85
2023-01-15T07:42:24.053Z,67.56
2023-01-15T07:45:50.014Z,68.21
2023-01-15T07:49:11.991Z,67.58
2023-01-15T07:52:23.685Z,67.69
2023-01-15T07:55:32.272Z,68.69
2023-01-15T07:58:40.444Z,69.08
2023-01-15T08:01:48.845Z,68.82
2023-01-15T08:04:57.235Z,69.50
2023-01-15T08:08:07.212Z,69.54
2023-01-15T08:11:33.088Z,69.57
2023-01-15T08:14:58.961Z,69.62
2023-01-15T08:18:07.236Z,70.72
2023-01-15T08:21:16.915Z,71.01
2023-01-15T08:24:27.057Z,70.87
2023-01-15T08:27:35.124Z,69.75
2023-01-15T08:30:46.223Z,69.90
2023-01-15T08:33:54.527Z,69.66
2023-01-15T08:37:02.682Z,68.10
2023-01-15T08:40:13.946Z,64.23
2023-01-15T08:43:21.992Z,62.52
2023-01-15T08:46:30.312Z,62.14
2023-01-15T08:49:39.079Z,61.20
2023-01-15T08:52:47.267Z,60.48
2023-01-15T08:55:57.052Z,60.46
2023-01-15T08:59:07.919Z,58.94
2023-01-15T09:02:17.810Z,58.60
2023-01-15T09:05:27.982Z,58.44
2023-01-15T09:08:36.396Z,58.04
2023-01-15T09:11:46.766Z,56.64
2023-01-15T09:15:02.708Z,56.68
2023-01-15T09:18:12.696Z,57.13
2023-01-15T09:21:21.287Z,55.58
2023-01-15T09:24:29.352Z,57.54
2023-01-15T09:27:39.077Z,57.65
2023-01-15T09:30:47.258Z,57.21
2023-01-15T09:33:56.290Z,56.33
2023-01-15T09:37:04.899Z,56.51
2023-01-15T09:40:42.172Z,57.58
2023-01-15T09:44:06.373Z,57.33
2023-01-15T09:47:22.106Z,57.07
2023-01-15T09:50:49.565Z,57.45
2023-01-15T09:54:25.162Z,57.09
2023-01-15T09:57:35.390Z,56.36
2023-01-15T10:00:49.493Z,55.50
2023-01-15T10:04:05.712Z,55.18
2023-01-15T10:07:24.114Z,55.23
2023-01-15T10:10:42.124Z,54.73
2023-01-15T10:13:57.401Z,52.69
2023-01-15T10:17:20.088Z,53.89
2023-01-15T10:20:54.185Z,54.29
2023-01-15T10:24:13.518Z,54.64
2023-01-15T10:27:26.258Z,53.39
2023-01-15T10:30:42.689Z,59.43
2023-01-15T10:34:25.081Z,69.38
2023-01-15T10:37:41.934Z,71.91
2023-01-15T10:41:14.713Z,72.13
2023-01-15T10:44:34.326Z,71.43
2023-01-15T10:47:49.728Z,72.39
2023-01-15T10:51:07.745Z,72.43
2023-01-15T10:54:25.595Z,73.26
2023-01-15T10:57:56.485Z,74.16
2023-01-15T11:01:16.017Z,72.87
2023-01-15T11:04:26.231Z,73.17
2023-01-15T11:08:03.231Z,72.65
2023-01-15T11:11:22.076Z,73.91
2023-01-15T11:14:57.301Z,73.81
2023-01-15T11:18:32.038Z,74.11
2023-01-15T11:21:44.063Z,73.79
2023-01-15T11:24:57.746Z,74.49
2023-01-15T11:28:09.890Z,74.96
2023-01-15T11:31:18.685Z,75.28
2023-01-15T11:34:26.961Z,74.82
2023-01-15T11:37:35.162Z,75.24
2023-01-15T11:40:55.006Z,75.66
2023-01-15T11:44:20.973Z,75.91
2023-01-15T11:47:46.665Z,75.97
2023-01-15T11:51:02.392Z,77.09
2023-01-15T11:54:15.569Z,78.87
2023-01-15T11:57:33.892Z,78.91
2023-01-15T12:00:45.127Z,79.40
2023-01-15T12:03:54.440Z,79.74
2023-01-15T12:07:06.372Z,80.55
2023-01-15T12:10:42.884Z,81.16
2023-01-15T12:14:09.431Z,81.79
2023-01-15T12:17:43.229Z,82.31
2023-01-15T12:21:03.707Z,83.55
2023-01-15T12:24:42.685Z,82.40
2023-01-15T12:27:59.896Z,81.93
2023-01-15T12:31:17.006Z,80.67
2023-01-15T12:34:36.363Z,80.52
2023-01-15T12:37:51.923Z,81.14
2023-01-15T12:41:12.078Z,81.40
2023-01-15T12:44:45.721Z,81.68
2023-01-15T12:48:06.830Z,81.66
2023-01-15T12:51:24.479Z,80.96
2023-01-15T12:54:42.648Z,81.59
2023-01-15T12:57:57.711Z,81.15
2023-01-15T13:01:17.550Z,81.76
2023-01-15T13:04:35.431Z,81.76
2023-01-15T13:07:54.676Z,82.37
2023-01-15T13:11:03.179Z,81.25
2023-01-15T13:14:17.705Z,81.87
2023-01-15T13:17:49.029Z,81.65
2023-01-15T13:21:04.531Z,80.50
2023-01-15T13:24:50.003Z,81.57
2023-01-15T13:28:29.299Z,81.02
2023-01-15T13:31:59.793Z,80.10
2023-01-15T13:35:15.671Z,81.14
2023-01-15T13:38:31.573Z,81.31
2023-01-15T13:41:58.159Z,82.29
2023-01-15T13:45:33.457Z,83.26
2023-01-15T13:48:46.574Z,83.44
2023-01-15T13:51:58.775Z,82.88
2023-01-15T13:55:30.677Z,81.71
2023-01-15T13:58:53.043Z,81.47
2023-01-15T14:02:01.534Z,80.88
2023-01-15T14:05:30.697Z,81.57
2023-01-15T14:08:42.936Z,81.20
2023-01-15T14:12:14.373Z,81.63
2023-01-15T14:15:38.279Z,80.52
2023-01-15T14:19:23.664Z,81.58
2023-01-15T14:23:05.117Z,81.22
2023-01-15T14:26:26.162Z,80.49
2023-01-15T14:30:07.682Z,81.04
2023-01-15T14:33:30.502Z,81.48
2023-01-15T14:36:52.729Z,80.78
2023-01-15T14:40:04.429Z,81.58
2023-01-15T14:43:21.353Z,82.21
2023-01-15T14:46:40.661Z,81.87
2023-01-15T14:50:02.703Z,81.30
2023-01-15T14:53:38.395Z,81.71
2023-01-15T14:56:54.212Z,82.25
2023-01-15T15:00:05.519Z,82.25
2023-01-15T15:03:23.342Z,83.14
2023-01-15T15:06:32.486Z,82.79
2023-01-15T15:09:48.027Z,82.51
2023-01-15T15:13:07.995Z,83.30
2023-01-15T15:16:29.011Z,82.75
2023-01-15T15:19:49.146Z,83.18
2023-01-15T15:23:05.833Z,83.60
2023-01-15T15:26:28.271Z,83.11
2023-01-15T15:29:36.682Z,83.46
2023-01-15T15:32:46.366Z,83.39
2023-01-15T15:36:00.967Z,83.55
2023-01-15T15:39:21.289Z,82.44
2023-01-15T15:42:52.713Z,82.33
2023-01-15T15:46:18.483Z,82.16
2023-01-15T15:49:26.895Z,82.15
2023-01-15T15:52:36.654Z,82.44
2023-01-15T15:55:47.852Z,81.27
2023-01-15T15:58:58.320Z,82.19
2023-01-15T16:02:19.361Z,82.19
2023-01-15T16:05:31.687Z,82.05
2023-01-15T16:08:41.367Z,82.85
2023-01-15T16:11:52.497Z,81.68
2023-01-15T16:15:02.227Z,82.47
2023-01-15T16:18:24.475Z,82.22
2023-01-15T16:21:36.341Z,82.18
2023-01-15T16:24:56.660Z,81.55
2023-01-15T16:28:06.394Z,80.92
2023-01-15T16:31:19.729Z,81.07
2023-01-15T16:34:31.844Z,81.14
2023-01-15T16:37:40.901Z,80.95
2023-01-15T16:40:50.785Z,81.21
2023-01-15T16:44:03.753Z,80.05
2023-01-15T16:47:24.973Z,79.71
2023-01-15T16:50:35.185Z,79.79
2023-01-15T16:53:43.524Z,79.97
2023-01-15T16:56:55.928Z,79.19
2023-01-15T17:00:08.811Z,78.84
2023-01-15T17:03:21.527Z,79.05
2023-01-15T17:06:30.834Z,78.72
2023-01-15T17:09:44.984Z,79.79
2023-01-15T17:12:57.033Z,78.43
2023-01-15T17:16:18.618Z,78.03
2023-01-15T17:19:27.088Z,77.78
2023-01-15T17:22:35.900Z,77.40
2023-01-15T17:25:44.280Z,77.04
2023-01-15T17:28:56.902Z,78.47
2023-01-15T17:32:13.768Z,77.44
2023-01-15T17:35:29.392Z,78.28
2023-01-15T17:38:37.694Z,76.84
2023-01-15T17:41:45.957Z,77.59
2023-01-15T17:44:55.666Z,77.17
2023-01-15T17:48:08.710Z,77.26
2023-01-15T17:51:18.336Z,77.48
2023-01-15T17:54:40.574Z,77.08
2023-01-15T17:58:06.494Z,76.76
2023-01-15T18:01:39.765Z,76.51
2023-01-15T18:05:10.490Z,76.03
2023-01-15T18:08:21.747Z,77.28
2023-01-15T18:11:30.378Z,75.89
2023-01-15T18:14:38.661Z,76.55
2023-01-15T18:17:48.525Z,75.30
2023-01-15T18:20:56.917Z,76.74
2023-01-15T18:24:05.523Z,76.62
2023-01-15T18:27:13.673Z,75.42
2023-01-15T18:30:22.203Z,74.90
2023-01-15T18:33:32.103Z,75.42
2023-01-15T18:36:41.186Z,75.86
2023-01-15T18:39:50.351Z,74.90
2023-01-15T18:43:16.950Z,76.32
2023-01-15T18:46:43.231Z,75.32
2023-01-15T18:49:55.133Z,75.79
2023-01-15T18:53:03.289Z,76.15
2023-01-15T18:56:11.555Z,75.50
2023-01-15T18:59:19.966Z,74.76
2023-01-15T19:02:28.404Z,75.74
2023-01-15T19:05:38.071Z,75.04
2023-01-15T19:08:46.303Z,75.25
2023-01-15T19:11:54.960Z,75.65
2023-01-15T19:15:21.047Z,74.87
2023-01-15T19:18:52.821Z,74.41
2023-01-15T19:22:19.687Z,75.03
2023-01-15T19:25:31.422Z,74.50
2023-01-15T19:28:39.651Z,74.07
2023-01-15T19:31:48.062Z,75.16
2023-01-15T19:34:56.389Z,75.13
2023-01-15T19:38:08.477Z,75.91
2023-01-15T19:41:36.804Z,74.12
2023-01-15T19:45:03.134Z,73.33
2023-01-15T19:48:32.443Z,74.69
2023-01-15T19:51:58.632Z,74.69
2023-01-15T19:55:12.018Z,73.73
2023-01-15T19:58:20.826Z,74.14
2023-01-15T20:01:29.258Z,73.81
2023-01-15T20:04:37.618Z,73.99
2023-01-15T20:07:45.887Z,73.95
2023-01-15T20:10:55.676Z,74.79
2023-01-15T20:14:02.891Z,72.43
2023-01-15T20:17:13.776Z,73.65
2023-01-15T20:20:22.526Z,73.37
2023-01-15T20:23:36.038Z,72.92
2023-01-15T20:26:45.793Z,73.36
2023-01-15T20:29:54.971Z,73.86
2023-01-15T20:33:03.233Z,72.62
2023-01-15T20:36:15.820Z,73.23
2023-01-15T20:39:24.536Z,72.01
2023-01-15T20:42:52.589Z,72.35
2023-01-15T20:46:10.845Z,74.49
2023-01-15T20:49:28.895Z,73.93
2023-01-15T20:52:41.656Z,74.29
2023-01-15T20:55:57.425Z,74.26
2023-01-15T20:59:10.526Z,74.99
2023-01-15T21:02:19.697Z,75.25
2023-01-15T21:05:28.989Z,75.62
2023-01-15T21:08:37.799Z,74.68
2023-01-15T21:11:46.315Z,75.73
2023-01-15T21:14:56.053Z,76.00
2023-01-15T21:18:07.694Z,76.36
2023-01-15T21:21:19.013Z,76.38
2023-01-15T21:24:27.670Z,76.29
2023-01-15T21:27:38.774Z,77.62
2023-01-15T21:30:48.394Z,78.08
2023-01-15T21:33:58.778Z,77.76
2023-01-15T21:37:06.933Z,78.64
2023-01-15T21:40:15.537Z,78.63
2023-01-15T21:43:42.239Z,79.45
2023-01-15T21:46:52.074Z,79.88
2023-01-15T21:50:00.274Z,80.29
2023-01-15T21:53:09.387Z,79.58
2023-01-15T21:56:17.487Z,80.49
2023-01-15T21:59:26.523Z,80.46
2023-01-15T22:02:36.498Z,80.23
2023-01-15T22:05:44.918Z,79.85
2023-01-15T22:08:55.546Z,79.80
2023-01-15T22:12:03.981Z,79.87
2023-01-15T22:15:12.790Z,80.80
2023-01-15T22:18:26.549Z,80.78
2023-01-15T22:21:35.302Z,81.38
2023-01-15T22:24:43.818Z,80.94
2023-01-15T22:27:51.883Z,81.51
2023-01-15T22:30:59.963Z,81.65
2023-01-15T22:34:10.082Z,81.29
2023-01-15T22:37:18.209Z,81.03
2023-01-15T22:40:26.426Z,81.85
2023-01-15T22:43:35.065Z,81.10
2023-01-15T22:46:44.892Z,81.96
2023-01-15T22:49:54.435Z,82.36
2023-01-15T22:53:02.499Z,81.06
2023-01-15T22:56:10.618Z,81.97
2023-01-15T22:59:19.396Z,82.40
2023-01-15T23:02:41.498Z,81.77
2023-01-15T23:05:51.411Z,80.33
2023-01-15T23:09:01.704Z,79.37
2023-01-15T23:12:09.921Z,79.38
2023-01-15T23:15:18.265Z,79.73
2023-01-15T23:18:26.629Z,79.60
2023-01-15T23:21:36.681Z,79.60
2023-01-15T23:24:44.908Z,80.10
2023-01-15T23:27:53.385Z,81.05
2023-01-15T23:31:01.697Z,79.86
2023-01-15T23:34:10.598Z,79.61
2023-01-15T23:37:20.053Z,79.28
2023-01-15T23:40:28.152Z,78.44
2023-01-15T23:43:54.018Z,79.80
2023-01-15T23:47:02.336Z,79.55
2023-01-15T23:50:13.802Z,79.70
2023-01-15T23:53:23.187Z,79.93
2023-01-15T23:56:33.578Z,79.96
2023-01-15T23:59:41.633Z,79.83
